createdAt,value
2018-05-23T00:00:00.847Z,58.64
2018-05-23T00:01:00.836Z,58.65
2018-05-23T00:02:00.831Z,58.61
2018-05-23T00:03:00.806Z,58.66
2018-05-23T00:04:00.815Z,58.63
2018-05-23T00:05:00.784Z,58.61
2018-05-23T00:06:00.845Z,58.67
2018-05-23T00:07:00.785Z,58.66
2018-05-23T00:08:00.917Z,58.65
2018-05-23T00:09:00.742Z,58.68
2018-05-23T00:10:00.782Z,58.65
2018-05-23T00:11:00.673Z,58.69
2018-05-23T00:12:00.956Z,58.69
2018-05-23T00:13:01.028Z,58.69
2018-05-23T00:14:00.668Z,58.63
2018-05-23T00:15:00.771Z,58.66
2018-05-23T00:16:00.837Z,58.66
2018-05-23T00:17:00.683Z,58.61
2018-05-23T00:18:00.994Z,58.62
2018-05-23T00:19:00.860Z,58.63
2018-05-23T00:20:00.825Z,58.65
2018-05-23T00:21:00.806Z,58.68
2018-05-23T00:22:00.690Z,58.68
2018-05-23T00:23:00.662Z,58.63
2018-05-23T00:24:00.926Z,58.61
2018-05-23T00:25:00.821Z,58.62
2018-05-23T00:26:00.893Z,58.64
2018-05-23T00:27:00.733Z,58.66
2018-05-23T00:28:00.696Z,58.6
2018-05-23T00:29:00.695Z,58.6
2018-05-23T00:30:00.971Z,58.66
2018-05-23T00:31:00.658Z,58.63
2018-05-23T00:32:00.717Z,58.63
2018-05-23T00:33:00.657Z,58.67
2018-05-23T00:34:00.819Z,58.61
2018-05-23T00:35:00.782Z,58.67
2018-05-23T00:36:00.704Z,58.67
2018-05-23T00:37:00.773Z,58.65
2018-05-23T00:38:00.753Z,58.65
2018-05-23T00:39:00.662Z,58.65
2018-05-23T00:40:00.596Z,58.63
2018-05-23T00:41:00.720Z,58.6
2018-05-23T00:42:00.731Z,58.67
2018-05-23T00:43:00.839Z,58.6
2018-05-23T00:44:00.831Z,58.57
2018-05-23T00:45:00.804Z,58.65
2018-05-23T00:46:00.735Z,58.66
2018-05-23T00:47:00.848Z,58.68
2018-05-23T00:48:00.724Z,58.68
2018-05-23T00:49:00.653Z,58.71
2018-05-23T00:50:00.694Z,58.68
2018-05-23T00:51:00.917Z,58.7
2018-05-23T00:52:00.751Z,58.71
2018-05-23T00:53:00.829Z,58.67
2018-05-23T00:54:00.796Z,58.73
2018-05-23T00:55:00.822Z,58.7
2018-05-23T00:56:00.620Z,58.68
2018-05-23T00:57:00.795Z,58.67
2018-05-23T00:58:10.671Z,58.64
2018-05-23T00:59:00.633Z,58.66
2018-05-23T01:00:00.838Z,58.62
2018-05-23T01:01:00.708Z,58.64
2018-05-23T01:02:00.825Z,58.64
2018-05-23T01:03:00.571Z,58.72
2018-05-23T01:04:01.082Z,58.66
2018-05-23T01:05:00.891Z,58.66
2018-05-23T01:06:00.849Z,58.66
2018-05-23T01:07:00.854Z,58.65
2018-05-23T01:08:00.869Z,58.67
2018-05-23T01:09:00.794Z,58.68
2018-05-23T01:10:00.642Z,58.64
2018-05-23T01:11:00.983Z,58.64
2018-05-23T01:12:00.716Z,58.66
2018-05-23T01:13:00.752Z,58.66
2018-05-23T01:14:00.912Z,58.67
2018-05-23T01:15:00.831Z,58.67
2018-05-23T01:16:00.676Z,58.68
2018-05-23T01:17:00.725Z,58.64
2018-05-23T01:18:00.749Z,58.65
2018-05-23T01:19:00.835Z,58.64
2018-05-23T01:20:01.008Z,58.64
2018-05-23T01:21:00.729Z,58.71
2018-05-23T01:22:00.657Z,58.66
2018-05-23T01:23:00.882Z,58.63
2018-05-23T01:24:00.851Z,58.68
2018-05-23T01:25:00.926Z,58.66
2018-05-23T01:26:00.765Z,58.63
2018-05-23T01:27:00.882Z,58.66
2018-05-23T01:28:00.695Z,58.67
2018-05-23T01:29:00.991Z,58.64
2018-05-23T01:30:00.832Z,58.67
2018-05-23T01:31:00.711Z,58.64
2018-05-23T01:32:00.649Z,58.64
2018-05-23T01:33:00.916Z,58.67
2018-05-23T01:34:00.620Z,58.61
2018-05-23T01:35:00.780Z,58.62
2018-05-23T01:36:00.883Z,58.64
2018-05-23T01:37:00.619Z,58.58
2018-05-23T01:38:00.910Z,58.63
2018-05-23T01:39:00.868Z,58.66
2018-05-23T01:40:00.842Z,58.63
2018-05-23T01:41:00.707Z,58.62
2018-05-23T01:42:00.735Z,58.65
2018-05-23T01:43:00.766Z,58.6
2018-05-23T01:44:00.835Z,58.63
2018-05-23T01:45:00.607Z,58.66
2018-05-23T01:46:00.647Z,58.58
2018-05-23T01:47:00.618Z,58.63
2018-05-23T01:48:00.977Z,58.6
2018-05-23T01:49:00.794Z,58.57
2018-05-23T01:50:00.803Z,58.6
2018-05-23T01:51:00.640Z,58.61
2018-05-23T01:52:00.822Z,58.61
2018-05-23T01:53:00.722Z,58.58
2018-05-23T01:54:00.656Z,58.59
2018-05-23T01:55:00.901Z,58.63
2018-05-23T01:56:00.623Z,58.6
2018-05-23T01:57:00.731Z,58.6
2018-05-23T01:58:00.826Z,58.57
2018-05-23T01:59:00.731Z,58.61
2018-05-23T02:00:00.892Z,58.6
2018-05-23T02:01:00.742Z,58.59
2018-05-23T02:02:00.794Z,58.56
2018-05-23T02:03:00.646Z,58.58
2018-05-23T02:04:00.646Z,58.56
2018-05-23T02:05:00.782Z,58.57
2018-05-23T02:06:01.027Z,58.61
2018-05-23T02:07:00.737Z,58.58
2018-05-23T02:08:00.826Z,58.56
2018-05-23T02:09:00.649Z,58.61
2018-05-23T02:10:00.854Z,58.56
2018-05-23T02:11:00.777Z,58.55
2018-05-23T02:12:00.663Z,58.59
2018-05-23T02:13:01.166Z,58.56
2018-05-23T02:14:00.824Z,58.58
2018-05-23T02:15:01.011Z,58.57
2018-05-23T02:16:00.840Z,58.56
2018-05-23T02:17:00.656Z,58.56
2018-05-23T02:18:00.824Z,58.58
2018-05-23T02:19:00.912Z,58.58
2018-05-23T02:20:00.825Z,58.59
2018-05-23T02:21:00.642Z,58.57
2018-05-23T02:22:00.931Z,58.58
2018-05-23T02:23:00.787Z,58.52
2018-05-23T02:24:00.771Z,58.59
2018-05-23T02:25:00.652Z,58.57
2018-05-23T02:26:00.829Z,58.54
2018-05-23T02:27:00.821Z,58.57
2018-05-23T02:28:00.650Z,58.56
2018-05-23T02:29:00.665Z,58.53
2018-05-23T02:30:00.666Z,58.57
2018-05-23T02:31:00.919Z,58.5
2018-05-23T02:32:00.848Z,58.51
2018-05-23T02:33:00.934Z,58.55
2018-05-23T02:34:00.775Z,58.5
2018-05-23T02:35:00.807Z,58.55
2018-05-23T02:36:00.743Z,58.56
2018-05-23T02:37:00.835Z,58.57
2018-05-23T02:38:00.859Z,58.52
2018-05-23T02:39:00.765Z,58.51
2018-05-23T02:40:00.857Z,58.49
2018-05-23T02:41:00.842Z,58.49
2018-05-23T02:42:00.778Z,58.54
2018-05-23T02:43:00.824Z,58.55
2018-05-23T02:44:00.710Z,58.52
2018-05-23T02:45:00.794Z,58.52
2018-05-23T02:46:00.843Z,58.54
2018-05-23T02:47:01.583Z,58.5
2018-05-23T02:48:00.692Z,58.5
2018-05-23T02:49:00.902Z,58.5
2018-05-23T02:50:00.670Z,58.47
2018-05-23T02:51:00.665Z,58.5
2018-05-23T02:52:00.805Z,58.55
2018-05-23T02:53:00.730Z,58.52
2018-05-23T02:54:00.719Z,58.5
2018-05-23T02:55:00.740Z,58.52
2018-05-23T02:56:00.690Z,58.49
2018-05-23T02:57:00.682Z,58.49
2018-05-23T02:58:00.696Z,58.5
2018-05-23T02:59:00.785Z,58.48
2018-05-23T03:00:00.669Z,58.53
2018-05-23T03:01:00.642Z,58.47
2018-05-23T03:02:00.878Z,58.43
2018-05-23T03:03:01.717Z,58.48
2018-05-23T03:04:00.802Z,58.45
2018-05-23T03:05:00.802Z,58.46
2018-05-23T03:06:00.623Z,58.47
2018-05-23T03:07:00.810Z,58.46
2018-05-23T03:08:00.760Z,58.48
2018-05-23T03:09:00.761Z,58.43
2018-05-23T03:10:00.723Z,58.43
2018-05-23T03:11:00.707Z,58.47
2018-05-23T03:12:00.873Z,58.46
2018-05-23T03:13:00.673Z,58.5
2018-05-23T03:14:00.652Z,58.47
2018-05-23T03:15:00.640Z,58.46
2018-05-23T03:16:00.816Z,58.47
2018-05-23T03:17:01.057Z,58.42
2018-05-23T03:18:00.802Z,58.5
2018-05-23T03:19:00.827Z,58.45
2018-05-23T03:20:00.661Z,58.43
2018-05-23T03:21:00.717Z,58.46
2018-05-23T03:22:01.294Z,58.43
2018-05-23T03:23:00.813Z,58.41
2018-05-23T03:24:00.589Z,58.49
2018-05-23T03:25:00.677Z,58.48
2018-05-23T03:26:00.809Z,58.48
2018-05-23T03:27:00.768Z,58.48
2018-05-23T03:28:00.948Z,58.47
2018-05-23T03:29:00.754Z,58.47
2018-05-23T03:30:00.752Z,58.45
2018-05-23T03:31:00.782Z,58.49
2018-05-23T03:32:00.662Z,58.46
2018-05-23T03:33:00.629Z,58.45
2018-05-23T03:34:00.806Z,58.45
2018-05-23T03:35:00.742Z,58.53
2018-05-23T03:36:00.816Z,58.48
2018-05-23T03:37:00.652Z,58.47
2018-05-23T03:38:00.725Z,58.5
2018-05-23T03:39:00.895Z,58.53
2018-05-23T03:40:00.605Z,58.49
2018-05-23T03:41:00.812Z,58.46
2018-05-23T03:42:00.701Z,58.5
2018-05-23T03:43:00.644Z,58.49
2018-05-23T03:44:00.743Z,58.47
2018-05-23T03:45:00.751Z,58.49
2018-05-23T03:46:00.813Z,58.49
2018-05-23T03:47:00.722Z,58.47
2018-05-23T03:48:00.827Z,58.49
2018-05-23T03:49:00.823Z,58.47
2018-05-23T03:50:00.717Z,58.49
2018-05-23T03:51:10.634Z,58.47
2018-05-23T03:52:00.799Z,58.51
2018-05-23T03:53:00.900Z,58.48
2018-05-23T03:54:00.773Z,58.5
2018-05-23T03:55:00.854Z,58.49
2018-05-23T03:56:00.590Z,58.51
2018-05-23T03:57:00.630Z,58.51
2018-05-23T03:58:00.749Z,58.47
2018-05-23T03:59:00.637Z,58.48
2018-05-23T04:00:00.708Z,58.49
2018-05-23T04:01:00.733Z,58.47
2018-05-23T04:02:00.846Z,58.45
2018-05-23T04:03:00.563Z,58.5
2018-05-23T04:04:00.659Z,58.46
2018-05-23T04:05:00.789Z,58.47
2018-05-23T04:06:00.820Z,58.5
2018-05-23T04:07:00.675Z,58.46
2018-05-23T04:08:00.583Z,58.5
2018-05-23T04:09:00.645Z,58.52
2018-05-23T04:10:00.813Z,58.48
2018-05-23T04:11:00.654Z,58.48
2018-05-23T04:12:00.582Z,58.51
2018-05-23T04:13:00.821Z,58.47
2018-05-23T04:14:01.020Z,58.47
2018-05-23T04:15:00.681Z,58.52
2018-05-23T04:16:00.601Z,58.46
2018-05-23T04:17:00.694Z,58.5
2018-05-23T04:18:00.680Z,58.46
2018-05-23T04:19:00.686Z,58.45
2018-05-23T04:20:00.638Z,58.46
2018-05-23T04:21:10.612Z,58.46
2018-05-23T04:22:00.705Z,58.45
2018-05-23T04:23:00.850Z,58.44
2018-05-23T04:24:01.061Z,58.41
2018-05-23T04:25:02.085Z,58.43
2018-05-23T04:26:00.709Z,58.4
2018-05-23T04:27:00.755Z,58.49
2018-05-23T04:28:00.627Z,58.45
2018-05-23T04:29:00.865Z,58.42
2018-05-23T04:30:00.788Z,58.45
2018-05-23T04:31:00.592Z,58.47
2018-05-23T04:32:00.652Z,58.41
2018-05-23T04:33:00.693Z,58.47
2018-05-23T04:34:00.707Z,58.46
2018-05-23T04:35:00.862Z,58.44
2018-05-23T04:36:00.707Z,58.45
2018-05-23T04:37:00.857Z,58.43
2018-05-23T04:38:00.765Z,58.4
2018-05-23T04:39:00.767Z,58.44
2018-05-23T04:40:00.671Z,58.44
2018-05-23T04:41:00.571Z,58.43
2018-05-23T04:42:00.637Z,58.37
2018-05-23T04:43:00.648Z,58.4
2018-05-23T04:44:00.836Z,58.39
2018-05-23T04:45:00.636Z,58.37
2018-05-23T04:46:00.691Z,58.36
2018-05-23T04:47:00.590Z,58.38
2018-05-23T04:48:00.652Z,58.39
2018-05-23T04:49:00.684Z,58.38
2018-05-23T04:50:00.930Z,58.36
2018-05-23T04:51:00.560Z,58.38
2018-05-23T04:52:00.757Z,58.33
2018-05-23T04:53:00.696Z,58.34
2018-05-23T04:54:00.827Z,58.37
2018-05-23T04:55:00.802Z,58.36
2018-05-23T04:56:00.839Z,58.34
2018-05-23T04:57:00.814Z,58.36
2018-05-23T04:58:00.798Z,58.33
2018-05-23T04:59:00.873Z,58.32
2018-05-23T05:00:00.800Z,58.34
2018-05-23T05:01:00.667Z,58.36
2018-05-23T05:02:00.854Z,58.34
2018-05-23T05:03:00.831Z,58.42
2018-05-23T05:04:00.725Z,58.33
2018-05-23T05:05:00.741Z,58.34
2018-05-23T05:06:00.761Z,58.39
2018-05-23T05:07:00.790Z,58.33
2018-05-23T05:08:00.642Z,58.38
2018-05-23T05:09:00.567Z,58.38
2018-05-23T05:10:01.353Z,58.38
2018-05-23T05:11:00.629Z,58.37
2018-05-23T05:12:00.772Z,58.41
2018-05-23T05:13:00.649Z,58.37
2018-05-23T05:14:00.765Z,58.37
2018-05-23T05:15:00.834Z,58.33
2018-05-23T05:16:00.650Z,58.37
2018-05-23T05:17:00.749Z,58.36
2018-05-23T05:18:00.625Z,58.36
2018-05-23T05:19:00.587Z,58.38
2018-05-23T05:20:00.618Z,58.36
2018-05-23T05:21:00.815Z,58.38
2018-05-23T05:22:00.799Z,58.34
2018-05-23T05:23:00.856Z,58.33
2018-05-23T05:24:00.766Z,58.33
2018-05-23T05:25:01.677Z,58.32
2018-05-23T05:26:00.650Z,58.34
2018-05-23T05:27:00.557Z,58.43
2018-05-23T05:28:00.651Z,58.37
2018-05-23T05:29:00.778Z,58.36
2018-05-23T05:30:00.624Z,58.37
2018-05-23T05:31:00.693Z,58.36
2018-05-23T05:32:00.674Z,58.33
2018-05-23T05:33:00.830Z,58.37
2018-05-23T05:34:00.687Z,58.35
2018-05-23T05:35:00.660Z,58.31
2018-05-23T05:36:00.575Z,58.36
2018-05-23T05:37:00.600Z,58.34
2018-05-23T05:38:00.683Z,58.34
2018-05-23T05:39:00.748Z,58.4
2018-05-23T05:40:00.717Z,58.3
2018-05-23T05:41:00.858Z,58.31
2018-05-23T05:42:00.658Z,58.37
2018-05-23T05:43:00.767Z,58.34
2018-05-23T05:44:00.836Z,58.3
2018-05-23T05:45:00.500Z,58.35
2018-05-23T05:46:00.706Z,58.35
2018-05-23T05:47:01.378Z,58.36
2018-05-23T05:48:00.631Z,58.42
2018-05-23T05:49:00.663Z,58.36
2018-05-23T05:50:00.759Z,58.41
2018-05-23T05:51:00.573Z,58.46
2018-05-23T05:52:00.683Z,58.37
2018-05-23T05:53:00.835Z,58.38
2018-05-23T05:54:00.523Z,58.45
2018-05-23T05:55:00.934Z,58.37
2018-05-23T05:56:00.780Z,58.4
2018-05-23T05:57:00.701Z,58.45
2018-05-23T05:58:00.549Z,58.4
2018-05-23T05:59:00.853Z,58.45
2018-05-23T06:00:00.848Z,58.46
2018-05-23T06:01:00.715Z,58.4
2018-05-23T06:02:01.342Z,58.41
2018-05-23T06:03:00.586Z,58.48
2018-05-23T06:04:00.758Z,58.41
2018-05-23T06:05:00.845Z,58.38
2018-05-23T06:06:00.852Z,58.39
2018-05-23T06:07:00.798Z,58.41
2018-05-23T06:08:00.703Z,58.47
2018-05-23T06:09:00.616Z,58.46
2018-05-23T06:10:01.835Z,58.4
2018-05-23T06:11:00.620Z,58.5
2018-05-23T06:12:00.715Z,58.5
2018-05-23T06:13:00.626Z,58.49
2018-05-23T06:14:00.554Z,58.47
2018-05-23T06:15:00.610Z,58.42
2018-05-23T06:16:00.753Z,58.45
2018-05-23T06:17:00.808Z,58.43
2018-05-23T06:18:00.666Z,58.49
2018-05-23T06:19:00.530Z,58.46
2018-05-23T06:20:00.541Z,58.47
2018-05-23T06:21:00.559Z,58.49
2018-05-23T06:22:00.679Z,58.5
2018-05-23T06:23:00.601Z,58.53
2018-05-23T06:24:00.626Z,58.53
2018-05-23T06:25:00.699Z,58.51
2018-05-23T06:26:00.699Z,58.47
2018-05-23T06:27:00.787Z,58.5
2018-05-23T06:28:00.647Z,58.5
2018-05-23T06:29:00.680Z,58.47
2018-05-23T06:30:00.501Z,58.47
2018-05-23T06:31:00.669Z,58.43
2018-05-23T06:32:00.628Z,58.45
2018-05-23T06:33:00.680Z,58.44
2018-05-23T06:34:00.812Z,58.47
2018-05-23T06:35:00.606Z,58.49
2018-05-23T06:36:00.616Z,58.47
2018-05-23T06:37:00.726Z,58.47
2018-05-23T06:38:00.790Z,58.48
2018-05-23T06:39:00.498Z,58.48
2018-05-23T06:40:00.779Z,58.51
2018-05-23T06:41:00.781Z,58.46
2018-05-23T06:42:00.729Z,58.47
2018-05-23T06:43:00.796Z,58.53
2018-05-23T06:44:00.647Z,58.56
2018-05-23T06:45:00.911Z,58.55
2018-05-23T06:46:00.688Z,58.55
2018-05-23T06:47:00.721Z,58.52
2018-05-23T06:48:00.553Z,58.47
2018-05-23T06:49:00.667Z,58.48
2018-05-23T06:50:01.423Z,58.45
2018-05-23T06:51:00.672Z,58.46
2018-05-23T06:52:00.729Z,58.49
2018-05-23T06:53:00.721Z,58.51
2018-05-23T06:54:00.582Z,58.52
2018-05-23T06:55:00.675Z,58.46
2018-05-23T06:56:00.817Z,58.54
2018-05-23T06:57:00.603Z,59.01
2018-05-23T06:58:00.590Z,59.32
2018-05-23T06:59:00.796Z,58.87
2018-05-23T07:00:00.812Z,58.86
2018-05-23T07:01:00.831Z,58.85
2018-05-23T07:02:00.542Z,58.77
2018-05-23T07:03:00.760Z,58.72
2018-05-23T07:04:00.768Z,58.9
2018-05-23T07:05:00.767Z,58.89
2018-05-23T07:06:00.543Z,58.93
2018-05-23T07:07:00.663Z,58.87
2018-05-23T07:08:00.697Z,58.79
2018-05-23T07:09:00.548Z,58.78
2018-05-23T07:10:00.646Z,58.8
2018-05-23T07:11:01.439Z,58.83
2018-05-23T07:12:00.695Z,58.86
2018-05-23T07:13:00.811Z,58.78
2018-05-23T07:14:00.641Z,58.79
2018-05-23T07:15:00.571Z,58.84
2018-05-23T07:16:00.836Z,58.77
2018-05-23T07:17:00.689Z,58.8
2018-05-23T07:18:02.128Z,58.82
2018-05-23T07:19:00.669Z,58.77
2018-05-23T07:20:00.607Z,58.83
2018-05-23T07:21:00.732Z,58.79
2018-05-23T07:22:00.545Z,58.79
2018-05-23T07:23:00.689Z,58.79
2018-05-23T07:24:00.933Z,58.75
2018-05-23T07:25:00.621Z,58.75
2018-05-23T07:26:00.770Z,58.79
2018-05-23T07:27:00.892Z,58.82
2018-05-23T07:28:00.791Z,58.77
2018-05-23T07:29:00.799Z,58.75
2018-05-23T07:30:00.626Z,58.79
2018-05-23T07:31:00.527Z,58.73
2018-05-23T07:32:00.741Z,58.78
2018-05-23T07:33:00.585Z,58.84
2018-05-23T07:34:00.640Z,58.77
2018-05-23T07:35:00.773Z,58.78
2018-05-23T07:36:00.706Z,58.77
2018-05-23T07:37:00.831Z,58.77
2018-05-23T07:38:00.682Z,58.77
2018-05-23T07:39:00.832Z,58.77
2018-05-23T07:40:00.660Z,58.75
2018-05-23T07:41:00.640Z,58.77
2018-05-23T07:42:00.557Z,58.75
2018-05-23T07:43:00.766Z,58.75
2018-05-23T07:44:00.529Z,58.73
2018-05-23T07:45:00.783Z,58.75
2018-05-23T07:46:00.587Z,58.72
2018-05-23T07:47:00.636Z,58.72
2018-05-23T07:48:00.657Z,58.75
2018-05-23T07:49:03.911Z,58.7
2018-05-23T07:50:00.627Z,58.78
2018-05-23T07:51:00.606Z,58.76
2018-05-23T07:52:00.871Z,58.71
2018-05-23T07:53:00.621Z,58.7
2018-05-23T07:54:00.725Z,58.77
2018-05-23T07:55:00.629Z,58.72
2018-05-23T07:56:00.615Z,58.75
2018-05-23T07:57:00.727Z,58.77
2018-05-23T07:58:00.626Z,58.76
2018-05-23T07:59:00.670Z,58.7
2018-05-23T08:00:00.485Z,58.73
2018-05-23T08:01:00.675Z,58.68
2018-05-23T08:02:00.683Z,58.69
2018-05-23T08:03:00.715Z,58.7
2018-05-23T08:04:00.681Z,58.67
2018-05-23T08:05:00.701Z,58.65
2018-05-23T08:06:00.575Z,58.65
2018-05-23T08:07:00.562Z,58.6
2018-05-23T08:08:00.688Z,58.61
2018-05-23T08:09:00.534Z,58.64
2018-05-23T08:10:00.566Z,58.61
2018-05-23T08:11:00.617Z,58.64
2018-05-23T08:12:00.646Z,58.65
2018-05-23T08:13:00.800Z,58.63
2018-05-23T08:14:00.738Z,58.59
2018-05-23T08:15:00.649Z,58.62
2018-05-23T08:16:00.636Z,58.6
2018-05-23T08:17:00.592Z,58.57
2018-05-23T08:18:00.499Z,58.61
2018-05-23T08:19:00.776Z,58.61
2018-05-23T08:20:00.762Z,58.58
2018-05-23T08:21:00.587Z,58.6
2018-05-23T08:22:00.521Z,58.6
2018-05-23T08:23:00.646Z,58.6
2018-05-23T08:24:00.895Z,58.61
2018-05-23T08:25:00.751Z,58.57
2018-05-23T08:26:00.547Z,58.56
2018-05-23T08:27:00.488Z,58.62
2018-05-23T08:28:00.622Z,58.55
2018-05-23T08:29:00.666Z,58.59
2018-05-23T08:30:00.543Z,58.59
2018-05-23T08:31:00.758Z,58.61
2018-05-23T08:32:00.633Z,58.56
2018-05-23T08:33:00.597Z,58.57
2018-05-23T08:34:00.769Z,58.6
2018-05-23T08:35:00.525Z,58.55
2018-05-23T08:36:00.519Z,58.57
2018-05-23T08:37:00.598Z,58.61
2018-05-23T08:38:00.565Z,58.57
2018-05-23T08:39:00.905Z,58.65
2018-05-23T08:40:00.602Z,58.55
2018-05-23T08:41:00.709Z,58.59
2018-05-23T08:42:00.661Z,58.59
2018-05-23T08:43:00.487Z,58.62
2018-05-23T08:44:00.767Z,58.57
2018-05-23T08:45:00.667Z,58.58
2018-05-23T08:46:01.222Z,58.57
2018-05-23T08:47:10.536Z,58.54
2018-05-23T08:48:00.704Z,58.58
2018-05-23T08:49:00.818Z,58.61
2018-05-23T08:50:00.749Z,58.58
2018-05-23T08:51:00.735Z,58.53
2018-05-23T08:52:00.541Z,58.57
2018-05-23T08:53:00.651Z,58.57
2018-05-23T08:54:00.926Z,58.57
2018-05-23T08:55:00.910Z,58.61
2018-05-23T08:56:00.647Z,58.57
2018-05-23T08:57:00.624Z,58.59
2018-05-23T08:58:00.579Z,58.57
2018-05-23T08:59:00.636Z,58.58
2018-05-23T09:00:00.565Z,58.63
2018-05-23T09:01:00.638Z,58.57
2018-05-23T09:02:00.719Z,58.6
2018-05-23T09:03:00.658Z,58.62
2018-05-23T09:04:00.815Z,58.56
2018-05-23T09:05:01.698Z,58.57
2018-05-23T09:06:00.697Z,58.55
2018-05-23T09:07:00.661Z,58.56
2018-05-23T09:08:00.515Z,58.56
2018-05-23T09:09:00.576Z,58.58
2018-05-23T09:10:00.638Z,58.55
2018-05-23T09:11:00.693Z,58.53
2018-05-23T09:12:00.583Z,58.57
2018-05-23T09:13:00.660Z,58.55
2018-05-23T09:14:00.618Z,58.59
2018-05-23T09:15:00.590Z,58.58
2018-05-23T09:16:00.627Z,58.54
2018-05-23T09:17:00.529Z,58.56
2018-05-23T09:18:00.488Z,58.61
2018-05-23T09:19:00.830Z,58.56
2018-05-23T09:20:00.548Z,58.56
2018-05-23T09:21:00.533Z,58.55
2018-05-23T09:22:00.721Z,58.54
2018-05-23T09:23:00.799Z,58.54
2018-05-23T09:24:00.575Z,58.58
2018-05-23T09:25:00.673Z,58.55
2018-05-23T09:26:00.506Z,58.55
2018-05-23T09:27:00.690Z,58.54
2018-05-23T09:28:00.526Z,58.52
2018-05-23T09:29:00.570Z,58.51
2018-05-23T09:30:00.756Z,58.54
2018-05-23T09:31:00.546Z,58.55
2018-05-23T09:32:00.709Z,58.52
2018-05-23T09:33:00.606Z,58.55
2018-05-23T09:34:00.461Z,58.58
2018-05-23T09:35:00.535Z,58.53
2018-05-23T09:36:00.784Z,58.55
2018-05-23T09:37:00.839Z,58.57
2018-05-23T09:38:00.516Z,58.56
2018-05-23T09:39:00.541Z,58.5
2018-05-23T09:40:00.528Z,58.59
2018-05-23T09:41:00.704Z,58.54
2018-05-23T09:42:00.706Z,58.53
2018-05-23T09:43:00.621Z,58.56
2018-05-23T09:44:00.530Z,58.56
2018-05-23T09:45:00.904Z,58.57
2018-05-23T09:46:00.564Z,58.55
2018-05-23T09:47:00.652Z,58.54
2018-05-23T09:48:00.696Z,58.55
2018-05-23T09:49:00.796Z,58.53
2018-05-23T09:50:00.537Z,58.55
2018-05-23T09:51:00.582Z,58.54
2018-05-23T09:52:00.576Z,58.56
2018-05-23T09:53:00.561Z,58.51
2018-05-23T09:54:00.863Z,58.56
2018-05-23T09:55:01.490Z,58.5
2018-05-23T09:56:00.742Z,58.51
2018-05-23T09:57:00.629Z,58.5
2018-05-23T09:58:00.530Z,58.51
2018-05-23T09:59:00.497Z,58.51
2018-05-23T10:00:00.671Z,58.55
2018-05-23T10:01:00.563Z,58.48
2018-05-23T10:02:00.519Z,58.5
2018-05-23T10:03:00.765Z,58.47
2018-05-23T10:04:00.530Z,58.51
2018-05-23T10:05:00.595Z,58.49
2018-05-23T10:06:00.793Z,58.5
2018-05-23T10:07:00.855Z,58.46
2018-05-23T10:08:00.847Z,58.51
2018-05-23T10:09:00.521Z,58.49
2018-05-23T10:10:00.617Z,58.5
2018-05-23T10:11:00.483Z,58.49
2018-05-23T10:12:00.603Z,58.47
2018-05-23T10:13:00.566Z,58.5
2018-05-23T10:14:00.801Z,58.48
2018-05-23T10:15:00.616Z,58.45
2018-05-23T10:16:00.615Z,58.52
2018-05-23T10:17:00.486Z,58.46
2018-05-23T10:18:00.563Z,58.48
2018-05-23T10:19:00.513Z,58.5
2018-05-23T10:20:00.514Z,58.46
2018-05-23T10:21:00.526Z,58.48
2018-05-23T10:22:00.636Z,58.47
2018-05-23T10:23:00.566Z,58.5
2018-05-23T10:24:00.825Z,58.48
2018-05-23T10:25:00.735Z,58.46
2018-05-23T10:26:00.690Z,58.45
2018-05-23T10:27:00.695Z,58.48
2018-05-23T10:28:00.572Z,58.49
2018-05-23T10:29:00.576Z,58.48
2018-05-23T10:30:00.596Z,58.48
2018-05-23T10:31:00.680Z,58.51
2018-05-23T10:32:00.755Z,58.46
2018-05-23T10:33:00.570Z,58.46
2018-05-23T10:34:00.633Z,58.45
2018-05-23T10:35:00.464Z,58.48
2018-05-23T10:36:00.792Z,58.47
2018-05-23T10:37:00.574Z,58.45
2018-05-23T10:38:00.493Z,58.47
2018-05-23T10:39:01.178Z,58.45
2018-05-23T10:40:00.658Z,58.43
2018-05-23T10:41:00.641Z,58.44
2018-05-23T10:42:00.668Z,58.44
2018-05-23T10:43:00.724Z,58.44
2018-05-23T10:44:00.509Z,58.42
2018-05-23T10:45:00.665Z,58.44
2018-05-23T10:46:00.693Z,58.38
2018-05-23T10:47:00.521Z,58.46
2018-05-23T10:48:00.528Z,58.45
2018-05-23T10:49:00.707Z,58.46
2018-05-23T10:50:00.476Z,58.39
2018-05-23T10:51:00.593Z,58.45
2018-05-23T10:52:01.207Z,58.44
2018-05-23T10:53:00.737Z,58.41
2018-05-23T10:54:00.500Z,58.44
2018-05-23T10:55:00.454Z,58.36
2018-05-23T10:56:00.665Z,58.39
2018-05-23T10:57:00.914Z,58.4
2018-05-23T10:58:00.486Z,58.35
2018-05-23T10:59:00.699Z,58.43
2018-05-23T11:00:00.601Z,58.34
2018-05-23T11:01:00.625Z,58.34
2018-05-23T11:02:00.718Z,58.36
2018-05-23T11:03:01.624Z,58.36
2018-05-23T11:04:00.545Z,58.42
2018-05-23T11:05:00.488Z,58.44
2018-05-23T11:06:01.550Z,58.4
2018-05-23T11:07:00.628Z,58.36
2018-05-23T11:08:00.590Z,58.35
2018-05-23T11:09:01.355Z,58.38
2018-05-23T11:10:00.607Z,58.34
2018-05-23T11:11:00.821Z,58.34
2018-05-23T11:12:00.951Z,58.37
2018-05-23T11:13:00.543Z,58.35
2018-05-23T11:14:00.573Z,58.35
2018-05-23T11:15:00.971Z,58.39
2018-05-23T11:16:10.584Z,58.36
2018-05-23T11:17:00.932Z,58.38
2018-05-23T11:18:00.699Z,58.36
2018-05-23T11:19:00.542Z,58.38
2018-05-23T11:20:00.616Z,58.36
2018-05-23T11:21:00.527Z,58.39
2018-05-23T11:22:00.587Z,58.39
2018-05-23T11:23:00.522Z,58.33
2018-05-23T11:24:00.760Z,58.33
2018-05-23T11:25:00.630Z,58.33
2018-05-23T11:26:00.496Z,58.36
2018-05-23T11:27:00.662Z,58.34
2018-05-23T11:28:00.598Z,58.35
2018-05-23T11:29:00.513Z,58.35
2018-05-23T11:30:00.714Z,58.34
2018-05-23T11:31:00.568Z,58.33
2018-05-23T11:32:00.532Z,58.34
2018-05-23T11:33:00.661Z,58.33
2018-05-23T11:34:00.682Z,58.3
2018-05-23T11:35:00.472Z,58.32
2018-05-23T11:36:00.513Z,58.31
2018-05-23T11:37:00.651Z,58.31
2018-05-23T11:38:00.705Z,58.34
2018-05-23T11:39:00.437Z,58.3
2018-05-23T11:40:00.897Z,58.32
2018-05-23T11:41:00.526Z,58.3
2018-05-23T11:42:00.616Z,58.34
2018-05-23T11:43:00.737Z,58.35
2018-05-23T11:44:00.444Z,58.33
2018-05-23T11:45:00.487Z,58.33
2018-05-23T11:46:00.619Z,58.31
2018-05-23T11:47:00.583Z,58.29
2018-05-23T11:48:00.582Z,58.3
2018-05-23T11:49:00.562Z,58.28
2018-05-23T11:50:00.475Z,58.26
2018-05-23T11:51:00.593Z,58.35
2018-05-23T11:52:00.572Z,58.33
2018-05-23T11:53:00.405Z,58.27
2018-05-23T11:54:00.695Z,58.29
2018-05-23T11:55:00.686Z,58.31
2018-05-23T11:56:00.617Z,58.3
2018-05-23T11:57:00.488Z,58.3
2018-05-23T11:58:00.569Z,58.3
2018-05-23T11:59:00.675Z,58.28
2018-05-23T12:00:00.672Z,58.3
2018-05-23T12:01:00.578Z,58.29
2018-05-23T12:02:00.484Z,58.26
2018-05-23T12:03:00.511Z,58.31
2018-05-23T12:04:00.448Z,58.24
2018-05-23T12:05:00.568Z,58.26
2018-05-23T12:06:00.604Z,58.29
2018-05-23T12:07:00.581Z,58.28
2018-05-23T12:08:00.639Z,58.26
2018-05-23T12:09:00.670Z,58.26
2018-05-23T12:10:00.596Z,58.27
2018-05-23T12:11:00.655Z,58.26
2018-05-23T12:12:00.497Z,58.27
2018-05-23T12:13:00.496Z,58.28
2018-05-23T12:14:00.480Z,58.26
2018-05-23T12:15:00.468Z,58.27
2018-05-23T12:16:00.673Z,58.28
2018-05-23T12:17:00.570Z,58.2
2018-05-23T12:18:00.518Z,58.25
2018-05-23T12:19:00.569Z,58.23
2018-05-23T12:20:00.477Z,58.24
2018-05-23T12:21:00.532Z,58.25
2018-05-23T12:22:00.492Z,58.25
2018-05-23T12:23:00.696Z,58.22
2018-05-23T12:24:00.548Z,58.26
2018-05-23T12:25:00.527Z,58.24
2018-05-23T12:26:00.633Z,58.21
2018-05-23T12:27:00.689Z,58.27
2018-05-23T12:28:00.758Z,58.23
2018-05-23T12:29:00.627Z,58.23
2018-05-23T12:30:00.667Z,58.25
2018-05-23T12:31:00.448Z,58.23
2018-05-23T12:32:00.422Z,58.22
2018-05-23T12:33:00.540Z,58.23
2018-05-23T12:34:00.603Z,58.28
2018-05-23T12:35:00.460Z,58.25
2018-05-23T12:36:00.601Z,58.25
2018-05-23T12:37:00.564Z,58.25
2018-05-23T12:38:00.653Z,58.24
2018-05-23T12:39:00.614Z,58.26
2018-05-23T12:40:00.441Z,58.24
2018-05-23T12:41:01.283Z,58.27
2018-05-23T12:42:00.558Z,58.23
2018-05-23T12:43:00.513Z,58.24
2018-05-23T12:44:00.458Z,58.23
2018-05-23T12:45:00.451Z,58.24
2018-05-23T12:46:00.665Z,58.23
2018-05-23T12:47:00.637Z,58.23
2018-05-23T12:48:00.731Z,58.27
2018-05-23T12:49:00.446Z,58.24
2018-05-23T12:50:00.457Z,58.24
2018-05-23T12:51:00.564Z,58.28
2018-05-23T12:52:00.671Z,58.24
2018-05-23T12:53:00.630Z,58.24
2018-05-23T12:54:00.742Z,58.24
2018-05-23T12:55:00.598Z,58.25